Time;durP1;ratioP1;P1;durP2;ratioP2;P2;SDS_P1;SDS_P2;PMS_P1;PMS_P2;Temp;Humidity;BMP_temperature;BMP_pressure;BME280_temperature;BME280_humidity;BME280_pressure;Samples;Min_cycle;Max_cycle;Signal;HPM_P1;HPM_P2
2023/01/26 00:00:06;;;;;;;79.27;36.00;;;2.50;99.90;;;;;;5066219;28;20261;-33
2023/01/26 00:02:36;;;;;;;85.30;36.80;;;2.50;99.90;;;;;;5065553;28;20689;-33
2023/01/26 00:05:05;;;;;;;87.60;38.90;;;2.50;99.90;;;;;;5065974;28;20222;-33
2023/01/26 00:07:35;;;;;;;84.47;37.77;;;2.60;99.90;;;;;;5046321;28;20666;-33
2023/01/26 00:10:10;;;;;;;80.73;35.97;;;2.60;99.90;;;;;;5046579;28;20204;-33
2023/01/26 00:12:38;;;;;;;79.40;36.10;;;2.50;99.90;;;;;;5046452;28;20220;-33
2023/01/26 00:15:10;;;;;;;77.57;34.33;;;2.50;99.90;;;;;;5061260;28;20287;-33
2023/01/26 00:17:40;;;;;;;78.80;36.17;;;2.60;99.90;;;;;;5045532;28;20319;-32
2023/01/26 00:20:11;;;;;;;78.83;34.83;;;2.50;99.90;;;;;;5061484;28;20192;-33
2023/01/26 00:22:51;;;;;;;79.27;35.83;;;2.60;99.90;;;;;;5045092;28;20207;-33
2023/01/26 00:25:18;;;;;;;82.93;35.60;;;2.60;99.90;;;;;;5046033;28;20228;-33
2023/01/26 00:27:48;;;;;;;84.23;39.47;;;2.60;99.90;;;;;;5059176;28;20210;-33
2023/01/26 00:30:18;;;;;;;82.60;37.67;;;2.60;99.90;;;;;;5065822;28;20261;-33
2023/01/26 00:32:48;;;;;;;79.53;36.00;;;2.60;99.90;;;;;;5064831;28;20592;-33
2023/01/26 00:35:15;;;;;;;81.40;34.20;;;2.60;99.90;;;;;;5066215;28;20669;-33
2023/01/26 00:37:42;;;;;;;80.27;33.97;;;2.60;99.90;;;;;;5066048;28;20198;-33
2023/01/26 00:40:10;;;;;;;84.30;34.00;;;2.60;99.90;;;;;;5065639;28;20219;-33
2023/01/26 00:42:38;;;;;;;79.43;33.90;;;2.60;99.90;;;;;;5064837;28;20755;-33
2023/01/26 00:45:08;;;;;;;76.73;32.90;;;2.60;99.90;;;;;;5064572;28;20584;-33
2023/01/26 00:47:35;;;;;;;81.87;33.73;;;2.60;99.90;;;;;;5064663;28;20743;-33
2023/01/26 00:50:03;;;;;;;78.77;35.33;;;2.60;99.90;;;;;;5066098;28;20204;-33
2023/01/26 00:52:32;;;;;;;78.47;33.80;;;2.60;99.90;;;;;;5065012;28;20235;-33
2023/01/26 00:55:01;;;;;;;72.17;31.27;;;2.60;99.90;;;;;;5065872;28;20246;-32
2023/01/26 00:57:29;;;;;;;78.30;34.40;;;2.60;99.90;;;;;;5062867;28;20727;-33
2023/01/26 00:59:56;;;;;;;80.77;33.93;;;2.60;99.90;;;;;;5065710;28;20211;-33
2023/01/26 01:02:25;;;;;;;86.10;35.17;;;2.60;99.90;;;;;;5053171;28;20269;-32
2023/01/26 01:04:55;;;;;;;74.50;33.13;;;2.60;99.90;;;;;;5045276;28;20227;-33
2023/01/26 01:07:24;;;;;;;82.67;35.13;;;2.60;99.90;;;;;;5045089;28;20262;-33
2023/01/26 01:09:56;;;;;;;84.87;34.37;;;2.60;99.90;;;;;;5045844;28;20222;-32
2023/01/26 01:12:26;;;;;;;78.07;32.20;;;2.60;99.90;;;;;;5043575;28;20696;-32
2023/01/26 01:14:53;;;;;;;77.87;33.73;;;2.60;99.90;;;;;;5046056;28;20282;-33
2023/01/26 01:17:22;;;;;;;82.30;34.67;;;2.60;99.90;;;;;;5045259;28;20208;-33
2023/01/26 01:19:49;;;;;;;83.97;36.60;;;2.70;99.90;;;;;;5044973;28;20196;-33
2023/01/26 01:22:17;;;;;;;75.33;34.03;;;2.70;99.90;;;;;;5048359;28;20211;-33
2023/01/26 01:24:46;;;;;;;80.20;33.37;;;2.70;99.90;;;;;;5065330;28;20211;-33
2023/01/26 01:27:16;;;;;;;77.70;33.93;;;2.70;99.90;;;;;;5065240;28;20199;-33
2023/01/26 01:29:48;;;;;;;78.73;34.27;;;2.70;99.90;;;;;;5065072;28;20689;-32
2023/01/26 01:32:18;;;;;;;80.83;34.80;;;2.70;99.90;;;;;;5064922;28;20301;-33
2023/01/26 01:34:51;;;;;;;82.47;34.57;;;2.70;99.90;;;;;;5063400;28;20224;-32
2023/01/26 01:37:20;;;;;;;72.03;33.33;;;2.70;99.90;;;;;;5065458;28;20203;-33
2023/01/26 01:39:50;;;;;;;75.80;33.97;;;2.70;99.90;;;;;;5065305;28;20650;-33
2023/01/26 01:42:18;;;;;;;76.77;32.73;;;2.70;99.90;;;;;;5069421;28;20208;-33
2023/01/26 01:45:08;;;;;;;76.53;33.97;;;2.70;99.90;;;;;;5068949;28;20754;-33
2023/01/26 01:47:35;;;;;;;80.90;34.33;;;2.70;99.90;;;;;;5068097;28;20204;-33
2023/01/26 01:50:03;;;;;;;87.00;34.77;;;2.70;99.90;;;;;;5069687;28;20679;-32
2023/01/26 01:52:31;;;;;;;74.47;33.50;;;2.70;99.90;;;;;;5067790;28;20243;-33
2023/01/26 01:55:01;;;;;;;75.50;34.03;;;2.80;99.90;;;;;;5068973;28;20227;-33
2023/01/26 01:57:43;;;;;;;79.70;33.97;;;2.80;99.90;;;;;;5067345;28;20780;-33
2023/01/26 02:00:20;;;;;;;78.87;34.80;;;2.80;99.90;;;;;;5068261;28;20322;-33
2023/01/26 02:03:18;;;;;;;73.07;33.97;;;2.80;99.90;;;;;;5059361;28;20215;-33
2023/01/26 02:05:59;;;;;;;78.30;35.53;;;2.80;99.90;;;;;;5066527;28;20215;-33
2023/01/26 02:08:38;;;;;;;78.60;34.67;;;2.80;99.90;;;;;;5053914;28;20211;-33
2023/01/26 02:11:15;;;;;;;74.10;35.07;;;2.80;99.90;;;;;;5055416;28;20299;-34
2023/01/26 02:13:45;;;;;;;80.30;34.97;;;2.80;99.90;;;;;;5048384;28;20698;-33
2023/01/26 02:16:13;;;;;;;74.43;33.57;;;2.80;99.90;;;;;;5048721;28;20204;-33
2023/01/26 02:18:44;;;;;;;77.67;33.73;;;2.80;99.90;;;;;;5067283;28;20221;-33
2023/01/26 02:21:25;;;;;;;70.83;32.83;;;2.80;99.90;;;;;;5067652;28;20206;-33
2023/01/26 02:24:18;;;;;;;75.80;33.17;;;2.80;99.90;;;;;;5048232;28;20619;-33
2023/01/26 02:26:46;;;;;;;76.77;32.40;;;2.80;99.90;;;;;;5048164;28;20670;-33
2023/01/26 02:29:15;;;;;;;75.87;31.80;;;2.80;99.90;;;;;;5048259;28;20228;-33
2023/01/26 02:31:48;;;;;;;76.27;33.43;;;2.80;99.90;;;;;;5048156;28;20841;-33
2023/01/26 02:34:15;;;;;;;67.97;30.70;;;2.80;99.90;;;;;;5047408;28;20215;-33
2023/01/26 02:36:45;;;;;;;73.23;33.57;;;2.80;99.90;;;;;;5048583;28;20262;-33
2023/01/26 02:39:25;;;;;;;68.40;31.87;;;2.90;99.90;;;;;;5048540;28;20689;-33
2023/01/26 02:44:41;;;;;;;67.63;31.47;;;2.80;99.90;;;;;;5048271;28;20211;-33
2023/01/26 02:47:17;;;;;;;71.73;31.70;;;2.80;99.90;;;;;;5046228;28;20200;-32
2023/01/26 02:49:49;;;;;;;75.77;33.97;;;2.90;99.90;;;;;;5046845;28;20941;-33
2023/01/26 02:52:25;;;;;;;69.13;32.50;;;2.90;99.90;;;;;;5056112;28;20697;-33
2023/01/26 02:57:44;;;;;;;72.03;33.97;;;2.90;99.90;;;;;;5053418;28;20757;-33
2023/01/26 03:00:21;;;;;;;64.07;30.93;;;2.90;99.90;;;;;;5067831;28;20678;-33
2023/01/26 03:02:50;;;;;;;70.57;33.27;;;3.00;99.90;;;;;;5066739;28;20226;-33
2023/01/26 03:05:18;;;;;;;63.53;28.90;;;2.90;99.90;;;;;;5067761;28;20203;-33
2023/01/26 03:07:49;;;;;;;65.37;31.43;;;2.90;99.90;;;;;;5067279;28;20207;-33
2023/01/26 03:10:17;;;;;;;71.90;31.97;;;3.00;99.90;;;;;;5066963;28;20219;-32
2023/01/26 03:12:45;;;;;;;72.70;33.50;;;3.00;99.90;;;;;;5067292;28;20231;-32
2023/01/26 03:29:13;;;;;;;63.43;30.43;;;3.00;99.90;;;;;;5066323;28;20229;-33
2023/01/26 03:31:40;;;;;;;62.37;29.30;;;3.00;99.90;;;;;;5067172;28;20744;-33
2023/01/26 03:34:08;;;;;;;59.53;28.90;;;3.00;99.90;;;;;;5065983;28;20192;-33
2023/01/26 03:36:37;;;;;;;70.47;32.13;;;3.00;99.90;;;;;;5067301;28;20207;-33
2023/01/26 03:39:07;;;;;;;71.13;32.87;;;3.00;99.90;;;;;;5067250;28;20222;-33
2023/01/26 03:58:21;;;;;;;70.03;32.23;;;3.10;99.90;;;;;;5066175;28;20290;-33
2023/01/26 04:00:49;;;;;;;72.63;32.13;;;3.00;99.90;;;;;;5066706;28;20273;-33
2023/01/26 04:08:52;;;;;;;77.23;35.13;;;3.00;99.90;;;;;;5066309;28;20200;-33
2023/01/26 04:11:22;;;;;;;68.40;31.87;;;3.10;99.90;;;;;;5066334;28;20246;-32
2023/01/26 04:22:08;;;;;;;73.23;33.23;;;3.10;99.90;;;;;;5066208;28;20253;-33
2023/01/26 04:24:37;;;;;;;70.60;32.77;;;3.10;99.90;;;;;;5066274;28;20614;-33
2023/01/26 04:27:07;;;;;;;72.53;32.23;;;3.10;99.90;;;;;;5065652;28;20239;-33
2023/01/26 04:29:38;;;;;;;73.80;31.77;;;3.10;99.90;;;;;;5065563;28;20282;-32
2023/01/26 04:32:05;;;;;;;66.30;31.43;;;3.10;99.90;;;;;;5065452;28;20228;-32
2023/01/26 04:34:37;;;;;;;68.87;31.03;;;3.10;99.90;;;;;;5064839;28;20207;-33
2023/01/26 04:37:09;;;;;;;67.70;30.90;;;3.10;99.90;;;;;;5066102;28;20215;-32
2023/01/26 04:39:39;;;;;;;69.73;32.07;;;3.10;99.90;;;;;;5064566;28;20199;-33
2023/01/26 04:42:08;;;;;;;71.43;30.73;;;3.10;99.90;;;;;;5066337;28;20196;-32
2023/01/26 04:44:36;;;;;;;69.47;31.40;;;3.10;99.90;;;;;;5064521;28;20622;-33
2023/01/26 04:47:07;;;;;;;68.50;31.87;;;3.10;99.90;;;;;;5065943;28;20204;-32
2023/01/26 04:49:34;;;;;;;78.40;33.50;;;3.10;99.90;;;;;;5062669;28;20227;-32
2023/01/26 04:52:02;;;;;;;66.43;31.67;;;3.10;99.90;;;;;;5065668;28;20262;-33
2023/01/26 04:54:29;;;;;;;72.43;31.83;;;3.10;99.90;;;;;;5063713;28;20203;-33
2023/01/26 04:57:00;;;;;;;73.80;31.60;;;3.10;99.90;;;;;;5065443;28;20196;-33
2023/01/26 04:59:35;;;;;;;68.30;32.03;;;3.10;99.90;;;;;;5065517;28;20188;-33
2023/01/26 05:02:04;;;;;;;69.30;32.17;;;3.20;99.90;;;;;;5064022;28;20693;-32
2023/01/26 05:04:31;;;;;;;65.03;29.93;;;3.20;99.90;;;;;;5064601;28;20741;-33
2023/01/26 05:07:01;;;;;;;67.03;32.00;;;3.20;99.90;;;;;;5065296;28;20473;-33
2023/01/26 05:09:28;;;;;;;71.43;31.73;;;3.20;99.90;;;;;;5064957;28;20282;-32
2023/01/26 05:12:32;;;;;;;68.97;31.70;;;3.20;99.90;;;;;;5065601;28;20269;-32
2023/01/26 05:14:45;;;;;;;69.13;31.20;;;3.20;99.90;;;;;;5063600;28;20204;-32
2023/01/26 05:17:14;;;;;;;70.83;32.17;;;3.20;99.90;;;;;;5065211;28;20903;-32
2023/01/26 05:19:43;;;;;;;68.97;31.33;;;3.20;99.90;;;;;;5063152;28;20691;-32
2023/01/26 05:22:15;;;;;;;70.83;31.07;;;3.20;99.90;;;;;;5063984;28;20249;-33
2023/01/26 05:24:45;;;;;;;68.37;31.03;;;3.20;99.90;;;;;;5064841;28;20620;-33
2023/01/26 05:27:21;;;;;;;68.53;30.77;;;3.20;99.90;;;;;;5080161;28;20285;-32
2023/01/26 05:29:57;;;;;;;63.53;29.03;;;3.20;99.90;;;;;;5065079;28;20222;-32
2023/01/26 05:32:26;;;;;;;65.67;29.53;;;3.20;99.90;;;;;;5065111;28;20215;-32
2023/01/26 05:34:53;;;;;;;67.97;31.57;;;3.20;99.90;;;;;;5064836;28;20535;-32
2023/01/26 05:37:29;;;;;;;72.37;32.63;;;3.20;99.90;;;;;;5065355;28;20306;-32
2023/01/26 05:39:56;;;;;;;71.23;32.17;;;3.20;99.90;;;;;;5065025;28;20284;-33
2023/01/26 05:42:26;;;;;;;67.53;28.83;;;3.20;99.90;;;;;;5063497;28;20218;-32
2023/01/26 05:44:55;;;;;;;68.33;31.10;;;3.20;99.90;;;;;;5064603;28;20204;-32
2023/01/26 05:47:24;;;;;;;63.43;29.70;;;3.30;99.90;;;;;;5064967;28;20761;-32
2023/01/26 05:49:52;;;;;;;66.57;30.20;;;3.30;99.90;;;;;;5063030;28;20199;-33
2023/01/26 05:52:22;;;;;;;64.63;30.03;;;3.30;99.90;;;;;;5064821;28;20699;-33
2023/01/26 05:54:51;;;;;;;64.30;29.60;;;3.30;99.90;;;;;;5064742;28;20523;-33
2023/01/26 05:57:18;;;;;;;58.67;26.87;;;3.30;99.90;;;;;;5063499;28;20348;-32
2023/01/26 05:59:45;;;;;;;63.57;29.83;;;3.30;99.90;;;;;;5062536;28;20666;-32
2023/01/26 06:02:17;;;;;;;60.37;28.07;;;3.30;99.90;;;;;;5064695;28;20748;-32
2023/01/26 06:04:49;;;;;;;62.00;27.37;;;3.30;99.90;;;;;;5049447;28;20243;-33
2023/01/26 06:07:18;;;;;;;59.87;28.03;;;3.30;99.90;;;;;;5058469;28;20303;-33
2023/01/26 06:09:52;;;;;;;57.23;27.63;;;3.30;99.90;;;;;;5057614;28;20210;-33
2023/01/26 06:12:20;;;;;;;60.73;28.27;;;3.30;99.90;;;;;;5059872;28;20208;-32
2023/01/26 06:14:47;;;;;;;61.40;28.43;;;3.40;99.90;;;;;;5060507;28;20209;-32
2023/01/26 06:17:17;;;;;;;54.57;26.23;;;3.40;99.90;;;;;;5061413;28;20306;-32
2023/01/26 06:19:44;;;;;;;53.67;26.33;;;3.40;99.90;;;;;;5048379;28;20213;-32
2023/01/26 06:22:12;;;;;;;53.93;25.80;;;3.40;99.90;;;;;;5047256;28;20613;-32
2023/01/26 06:24:42;;;;;;;57.03;26.73;;;3.40;99.90;;;;;;5059846;28;20200;-32
2023/01/26 06:27:14;;;;;;;55.30;26.47;;;3.30;99.90;;;;;;5063573;28;20285;-32
2023/01/26 06:29:43;;;;;;;52.87;25.90;;;3.40;99.90;;;;;;5083274;28;20247;-32
2023/01/26 06:32:12;;;;;;;54.43;25.43;;;3.40;99.90;;;;;;5067906;28;20222;-32
2023/01/26 06:34:39;;;;;;;57.43;25.63;;;3.40;99.90;;;;;;5056043;28;20205;-32
2023/01/26 06:37:07;;;;;;;53.40;25.70;;;3.40;99.90;;;;;;5062333;28;20192;-32
2023/01/26 06:39:35;;;;;;;49.40;24.90;;;3.40;99.90;;;;;;5047748;28;20216;-32
2023/01/26 06:42:02;;;;;;;46.37;22.43;;;3.40;99.90;;;;;;5060608;28;20650;-32
2023/01/26 06:44:34;;;;;;;46.93;23.10;;;3.40;99.90;;;;;;5047783;28;20228;-32
2023/01/26 06:47:01;;;;;;;46.67;23.87;;;3.40;99.90;;;;;;5047696;28;20874;-32
2023/01/26 06:49:31;;;;;;;41.67;21.10;;;3.40;99.90;;;;;;5046797;28;20228;-32
2023/01/26 06:52:03;;;;;;;43.83;21.53;;;3.40;99.90;;;;;;5047958;28;20268;-32
2023/01/26 06:54:32;;;;;;;45.53;20.93;;;3.40;99.90;;;;;;5049447;28;20273;-32
2023/01/26 06:56:59;;;;;;;48.63;23.70;;;3.40;99.90;;;;;;5054998;28;20254;-32
2023/01/26 06:59:31;;;;;;;47.77;21.90;;;3.40;99.90;;;;;;5056787;28;20207;-32
2023/01/26 07:02:01;;;;;;;45.27;22.67;;;3.40;99.90;;;;;;5063550;28;20532;-32
2023/01/26 07:04:29;;;;;;;46.73;22.53;;;3.40;99.90;;;;;;5046088;28;20214;-32
2023/01/26 07:06:58;;;;;;;45.27;22.47;;;3.40;99.90;;;;;;5063628;28;20208;-32
2023/01/26 07:09:25;;;;;;;44.60;21.80;;;3.50;99.90;;;;;;5061573;28;20611;-32
2023/01/26 07:11:52;;;;;;;46.43;21.73;;;3.50;99.90;;;;;;5064302;28;20234;-32
2023/01/26 07:14:20;;;;;;;43.50;21.50;;;3.40;99.90;;;;;;5060636;28;20292;-32
2023/01/26 07:16:49;;;;;;;44.27;22.73;;;3.50;99.90;;;;;;5063905;28;20735;-32
2023/01/26 07:19:16;;;;;;;43.60;21.97;;;3.50;99.90;;;;;;5065045;28;20678;-32
2023/01/26 07:21:47;;;;;;;43.97;21.33;;;3.50;99.90;;;;;;5065146;28;20214;-32
2023/01/26 07:24:14;;;;;;;43.70;21.17;;;3.50;99.90;;;;;;5063772;28;20216;-32
2023/01/26 07:26:42;;;;;;;42.60;20.63;;;3.50;99.90;;;;;;5053633;28;20535;-32
2023/01/26 07:29:11;;;;;;;43.90;20.57;;;3.50;99.90;;;;;;5064551;28;20200;-32
2023/01/26 07:31:40;;;;;;;47.23;21.80;;;3.50;99.90;;;;;;5065024;28;20204;-32
2023/01/26 07:34:08;;;;;;;41.57;20.20;;;3.60;99.90;;;;;;5051726;28;20231;-32
2023/01/26 07:36:38;;;;;;;43.37;21.10;;;3.50;99.90;;;;;;5066898;28;20198;-32
2023/01/26 07:39:08;;;;;;;41.80;21.00;;;3.60;99.90;;;;;;5058118;28;20196;-32
2023/01/26 07:41:40;;;;;;;44.17;21.30;;;3.60;99.90;;;;;;5063578;28;20674;-32
2023/01/26 07:44:09;;;;;;;43.60;19.87;;;3.60;99.90;;;;;;5061256;28;20207;-32
2023/01/26 07:46:36;;;;;;;40.07;20.63;;;3.60;99.90;;;;;;5064962;28;20668;-32
2023/01/26 07:49:06;;;;;;;43.83;21.33;;;3.60;99.90;;;;;;5063060;28;20220;-32
2023/01/26 07:51:38;;;;;;;42.50;20.07;;;3.60;99.90;;;;;;5055632;28;20390;-32
2023/01/26 07:54:06;;;;;;;45.23;21.63;;;3.60;99.90;;;;;;5061914;28;20224;-32
2023/01/26 07:56:35;;;;;;;42.87;20.87;;;3.60;99.90;;;;;;5062711;28;20226;-32
2023/01/26 07:59:02;;;;;;;44.07;21.57;;;3.70;99.90;;;;;;5065271;28;20255;-32
2023/01/26 08:01:32;;;;;;;44.37;21.07;;;3.70;99.90;;;;;;5062668;28;20203;-32
2023/01/26 08:04:01;;;;;;;43.20;19.43;;;3.70;99.90;;;;;;5058799;28;20696;-32
2023/01/26 08:06:29;;;;;;;39.83;20.37;;;3.70;99.90;;;;;;5061224;28;20222;-32
2023/01/26 08:08:56;;;;;;;37.83;19.40;;;3.70;99.90;;;;;;5058407;28;20756;-32
2023/01/26 08:11:25;;;;;;;42.07;21.43;;;3.80;99.90;;;;;;5081573;28;20207;-32
2023/01/26 08:13:55;;;;;;;44.10;21.53;;;3.80;99.90;;;;;;5065175;28;20231;-32
2023/01/26 08:16:22;;;;;;;43.50;20.20;;;3.80;99.90;;;;;;5064476;28;20774;-32
2023/01/26 08:18:54;;;;;;;40.37;19.27;;;3.80;99.90;;;;;;5068828;28;20236;-32
2023/01/26 08:21:25;;;;;;;46.07;21.50;;;3.80;99.90;;;;;;5071636;28;20206;-32
2023/01/26 08:23:54;;;;;;;39.00;20.13;;;3.80;99.90;;;;;;5059796;28;20679;-32
2023/01/26 08:26:21;;;;;;;44.47;21.43;;;3.80;99.90;;;;;;5052132;28;20208;-32
2023/01/26 08:28:51;;;;;;;36.73;19.17;;;3.90;99.90;;;;;;5059317;28;20257;-32
2023/01/26 08:31:24;;;;;;;37.03;18.50;;;3.90;99.90;;;;;;5064957;28;20203;-32
2023/01/26 08:33:54;;;;;;;38.60;19.17;;;3.90;99.90;;;;;;5060141;28;20354;-32
2023/01/26 08:36:24;;;;;;;39.70;19.87;;;4.00;99.90;;;;;;5059179;28;20235;-32
2023/01/26 08:38:56;;;;;;;40.70;19.93;;;4.00;99.90;;;;;;5056548;28;20200;-32
2023/01/26 08:41:23;;;;;;;40.30;20.23;;;4.00;99.90;;;;;;5057131;28;20292;-32
2023/01/26 08:43:53;;;;;;;39.37;19.17;;;3.90;99.90;;;;;;5066292;28;20206;-32
2023/01/26 08:46:20;;;;;;;35.20;18.40;;;4.00;99.90;;;;;;5050212;28;20338;-32
2023/01/26 08:48:47;;;;;;;39.57;20.20;;;4.00;99.90;;;;;;5060287;28;20312;-32
2023/01/26 08:51:14;;;;;;;38.00;19.87;;;4.00;99.90;;;;;;5061282;28;20208;-32
2023/01/26 08:53:44;;;;;;;34.83;18.13;;;4.00;99.90;;;;;;5063269;28;20219;-32
2023/01/26 08:56:12;;;;;;;38.77;18.97;;;4.00;99.90;;;;;;5064143;28;20273;-32
2023/01/26 08:58:45;;;;;;;36.93;19.73;;;4.00;99.90;;;;;;5059257;28;20442;-32
2023/01/26 09:01:16;;;;;;;30.30;16.50;;;4.00;99.90;;;;;;5062800;28;20203;-32
2023/01/26 09:03:50;;;;;;;30.47;16.10;;;4.00;99.90;;;;;;5061696;28;20306;-32
2023/01/26 09:06:22;;;;;;;35.37;18.10;;;4.00;99.90;;;;;;5064748;28;20543;-32
2023/01/26 09:08:51;;;;;;;34.13;17.00;;;4.10;99.90;;;;;;5062429;28;20261;-32
2023/01/26 09:11:23;;;;;;;28.27;16.17;;;4.10;99.90;;;;;;5058207;28;20204;-32
2023/01/26 09:13:55;;;;;;;29.60;15.53;;;4.10;99.90;;;;;;5042949;28;20726;-32
2023/01/26 09:16:23;;;;;;;30.03;16.47;;;4.10;99.90;;;;;;5060472;28;20481;-32
2023/01/26 09:18:53;;;;;;;30.47;16.53;;;4.10;99.90;;;;;;5062429;28;20208;-32
2023/01/26 09:21:22;;;;;;;26.97;15.07;;;4.10;99.90;;;;;;5061576;28;20192;-32
2023/01/26 09:23:50;;;;;;;26.47;14.40;;;4.10;99.90;;;;;;5064913;28;20215;-32
2023/01/26 09:26:22;;;;;;;26.70;15.77;;;4.20;99.90;;;;;;5064135;28;20203;-32
2023/01/26 09:28:52;;;;;;;29.60;16.40;;;4.10;99.90;;;;;;5063986;28;20204;-32
2023/01/26 09:31:21;;;;;;;29.60;15.93;;;4.20;99.90;;;;;;5065191;28;20683;-32
2023/01/26 09:33:49;;;;;;;31.33;16.33;;;4.20;99.90;;;;;;5063878;28;20220;-32
2023/01/26 09:36:20;;;;;;;24.20;13.23;;;4.20;99.90;;;;;;5062804;28;20514;-32
2023/01/26 09:38:47;;;;;;;23.63;13.73;;;4.20;99.90;;;;;;5060098;28;20693;-32
2023/01/26 09:41:35;;;;;;;24.70;14.10;;;4.20;99.90;;;;;;5064980;28;20219;-32
2023/01/26 09:44:18;;;;;;;26.57;14.63;;;4.30;99.90;;;;;;5063093;28;20689;-32
2023/01/26 09:47:17;;;;;;;25.00;14.00;;;4.30;99.90;;;;;;5060778;28;20695;-32
2023/01/26 09:49:53;;;;;;;26.00;14.57;;;4.30;99.90;;;;;;5059978;28;20215;-32
2023/01/26 09:52:28;;;;;;;23.30;13.53;;;4.40;99.90;;;;;;5060583;28;20333;-32
2023/01/26 09:55:05;;;;;;;24.97;13.47;;;4.40;99.90;;;;;;5063188;28;20231;-31
2023/01/26 09:57:52;;;;;;;24.27;13.17;;;4.40;99.90;;;;;;5064072;28;20321;-32
2023/01/26 10:00:40;;;;;;;20.33;12.87;;;4.40;99.90;;;;;;5065002;28;20208;-32
2023/01/26 10:03:31;;;;;;;21.97;12.77;;;4.50;99.90;;;;;;5067867;28;20265;-32
2023/01/26 10:06:28;;;;;;;21.03;12.13;;;4.50;99.90;;;;;;5064053;28;20219;-32
2023/01/26 10:09:14;;;;;;;21.10;12.60;;;4.60;99.90;;;;;;5062134;28;20679;-32
2023/01/26 10:11:46;;;;;;;20.70;12.40;;;4.60;99.90;;;;;;5048667;28;20275;-32
2023/01/26 10:14:20;;;;;;;19.97;11.63;;;4.60;99.90;;;;;;5062885;28;20215;-32
2023/01/26 10:16:50;;;;;;;22.90;11.97;;;4.60;99.90;;;;;;5065990;28;20225;-32
2023/01/26 10:19:37;;;;;;;21.33;11.30;;;4.70;99.90;;;;;;5066241;28;20714;-32
2023/01/26 10:22:18;;;;;;;23.63;12.17;;;4.70;99.90;;;;;;5064513;28;20684;-32
2023/01/26 10:24:49;;;;;;;21.27;12.57;;;4.70;99.90;;;;;;5057438;28;20200;-32
2023/01/26 10:27:17;;;;;;;20.30;11.63;;;4.80;99.90;;;;;;5068820;28;20210;-32
2023/01/26 10:29:45;;;;;;;21.40;11.80;;;4.80;99.90;;;;;;5066656;28;20223;-32
2023/01/26 10:32:18;;;;;;;17.30;10.63;;;4.80;99.90;;;;;;5068098;28;20196;-32
2023/01/26 10:34:48;;;;;;;22.63;12.90;;;4.80;99.90;;;;;;5064094;28;20231;-32
2023/01/26 10:37:22;;;;;;;17.73;11.20;;;4.80;99.90;;;;;;5066436;28;20187;-32
2023/01/26 10:40:08;;;;;;;20.23;11.53;;;4.90;99.90;;;;;;5065581;28;20572;-32
2023/01/26 10:42:36;;;;;;;19.50;10.87;;;4.90;99.90;;;;;;5066120;28;20210;-32
2023/01/26 10:45:22;;;;;;;23.17;12.60;;;4.90;99.90;;;;;;5066833;28;20211;-32
2023/01/26 10:48:15;;;;;;;21.83;12.13;;;5.00;99.90;;;;;;5046742;28;20456;-32
2023/01/26 10:50:45;;;;;;;20.27;12.80;;;5.00;99.90;;;;;;5057961;28;20573;-32
2023/01/26 10:53:23;;;;;;;21.97;13.07;;;5.00;99.90;;;;;;5063330;28;20665;-32
2023/01/26 10:56:06;;;;;;;21.93;11.93;;;5.00;99.90;;;;;;5065381;28;20196;-32
2023/01/26 10:58:53;;;;;;;20.50;12.17;;;5.00;99.90;;;;;;5065262;28;20273;-32
2023/01/26 11:01:26;;;;;;;23.03;13.37;;;5.10;99.90;;;;;;5066755;28;20248;-32
2023/01/26 11:04:11;;;;;;;24.10;13.60;;;5.10;99.90;;;;;;5067085;28;20206;-32
2023/01/26 11:06:42;;;;;;;23.90;13.27;;;5.10;99.90;;;;;;5064861;28;20370;-32
2023/01/26 11:09:18;;;;;;;21.43;12.80;;;5.20;99.90;;;;;;5066565;28;20780;-31
2023/01/26 11:11:59;;;;;;;24.77;12.13;;;5.20;99.90;;;;;;5065649;28;20210;-30
2023/01/26 11:14:36;;;;;;;28.97;13.40;;;5.20;99.90;;;;;;5055690;28;20814;-30
2023/01/26 11:17:15;;;;;;;25.70;13.73;;;5.20;99.90;;;;;;5046741;28;20231;-30
2023/01/26 11:20:15;;;;;;;28.30;14.33;;;5.20;99.90;;;;;;5047314;28;20215;-30
2023/01/26 11:23:05;;;;;;;27.53;14.27;;;5.20;99.90;;;;;;5063584;28;20312;-30
2023/01/26 11:25:46;;;;;;;27.27;14.50;;;5.10;99.90;;;;;;5066121;28;20196;-30
2023/01/26 11:28:53;;;;;;;29.40;14.97;;;5.10;99.90;;;;;;5064506;28;20594;-30
2023/01/26 11:31:43;;;;;;;31.37;15.67;;;5.20;99.90;;;;;;5077021;28;20292;-30
2023/01/26 11:34:35;;;;;;;31.97;15.73;;;5.20;99.90;;;;;;5063497;28;20219;-30
2023/01/26 11:37:20;;;;;;;31.67;16.20;;;5.20;99.90;;;;;;5064613;28;20621;-30
2023/01/26 11:40:18;;;;;;;28.40;14.90;;;5.20;99.90;;;;;;5059433;28;20208;-30
2023/01/26 11:43:25;;;;;;;33.67;17.50;;;5.20;99.90;;;;;;5051645;28;20685;-30
2023/01/26 11:46:16;;;;;;;27.17;14.90;;;5.20;99.90;;;;;;5052092;28;20206;-30
2023/01/26 11:49:23;;;;;;;31.50;15.90;;;5.20;99.90;;;;;;5051372;28;20518;-30
2023/01/26 11:52:09;;;;;;;32.70;16.50;;;5.20;99.90;;;;;;5064029;28;20243;-30
2023/01/26 11:55:02;;;;;;;41.87;16.07;;;5.20;99.90;;;;;;5064014;28;20223;-31
2023/01/26 11:57:40;;;;;;;38.87;17.47;;;5.30;99.90;;;;;;5062972;28;20204;-30
2023/01/26 12:00:13;;;;;;;35.70;16.07;;;5.30;99.90;;;;;;5060988;28;20204;-30
2023/01/26 12:03:02;;;;;;;35.97;17.87;;;5.30;99.90;;;;;;5046837;28;20208;-30
2023/01/26 12:05:46;;;;;;;44.37;18.13;;;5.30;99.90;;;;;;5057256;28;20212;-32
2023/01/26 12:08:25;;;;;;;41.93;18.93;;;5.30;99.90;;;;;;5054933;28;20203;-31
2023/01/26 12:11:27;;;;;;;42.60;19.40;;;5.30;99.90;;;;;;5058454;28;20696;-31
2023/01/26 12:14:07;;;;;;;48.00;19.83;;;5.40;99.90;;;;;;5053027;28;20396;-31
2023/01/26 12:16:45;;;;;;;42.70;19.47;;;5.30;99.90;;;;;;5054868;28;20311;-31
2023/01/26 12:19:37;;;;;;;45.30;20.07;;;5.30;99.90;;;;;;5062152;28;20686;-31
2023/01/26 12:22:27;;;;;;;44.33;20.63;;;5.30;99.90;;;;;;5050361;28;20483;-31
2023/01/26 12:25:00;;;;;;;50.53;21.07;;;5.40;99.90;;;;;;5045742;28;20216;-31
2023/01/26 12:28:04;;;;;;;57.30;22.30;;;5.40;99.90;;;;;;5050643;28;20243;-31
2023/01/26 12:30:31;;;;;;;48.90;21.10;;;5.40;99.90;;;;;;5049290;28;20758;-31
2023/01/26 12:32:59;;;;;;;45.03;20.90;;;5.40;99.90;;;;;;5050802;28;20421;-31
2023/01/26 12:35:56;;;;;;;58.33;22.07;;;5.50;99.90;;;;;;5063654;28;20227;-32
2023/01/26 12:38:23;;;;;;;54.67;24.07;;;5.50;99.90;;;;;;5052010;28;20199;-31
2023/01/26 12:41:01;;;;;;;51.43;22.27;;;5.50;99.90;;;;;;5048812;28;20291;-31
2023/01/26 12:43:37;;;;;;;47.63;21.83;;;5.50;99.90;;;;;;5045765;28;20744;-31
2023/01/26 12:46:06;;;;;;;54.97;21.77;;;5.60;99.90;;;;;;5053254;28;20543;-31
2023/01/26 12:48:42;;;;;;;47.20;21.33;;;5.60;99.90;;;;;;5061320;28;20195;-31
2023/01/26 12:51:35;;;;;;;57.00;23.10;;;5.70;99.90;;;;;;5056971;28;20206;-31
2023/01/26 12:54:32;;;;;;;58.17;23.67;;;5.80;99.90;;;;;;5057542;28;20264;-31
2023/01/26 12:57:08;;;;;;;53.27;22.90;;;5.80;99.90;;;;;;5058683;28;20231;-31
2023/01/26 12:59:38;;;;;;;53.63;23.63;;;5.80;99.90;;;;;;5048876;28;20290;-31
2023/01/26 13:02:14;;;;;;;54.27;23.57;;;5.80;99.90;;;;;;5045247;28;20207;-31
2023/01/26 13:04:45;;;;;;;49.70;21.60;;;5.80;99.90;;;;;;5053142;28;20231;-31
2023/01/26 13:07:37;;;;;;;52.37;24.13;;;5.90;99.90;;;;;;5061519;28;20199;-31
2023/01/26 13:10:13;;;;;;;50.73;22.07;;;6.00;99.90;;;;;;5045580;28;20255;-31
2023/01/26 13:12:49;;;;;;;59.23;22.53;;;6.00;99.90;;;;;;5053835;28;20261;-31
2023/01/26 13:15:23;;;;;;;56.27;22.67;;;6.10;99.90;;;;;;5048745;28;20252;-31
2023/01/26 13:17:53;;;;;;;51.27;23.17;;;6.10;99.90;;;;;;5052461;28;20232;-32
2023/01/26 13:20:39;;;;;;;52.57;24.30;;;6.20;99.90;;;;;;5053984;28;20204;-31
2023/01/26 13:23:39;;;;;;;47.23;23.97;;;6.20;99.90;;;;;;5050821;28;20227;-31
2023/01/26 13:26:17;;;;;;;53.20;23.37;;;6.20;99.90;;;;;;5044479;28;20582;-31
2023/01/26 13:28:50;;;;;;;54.23;22.53;;;6.30;99.90;;;;;;5047809;28;20273;-31
2023/01/26 13:31:33;;;;;;;59.80;24.67;;;6.30;99.90;;;;;;5061564;28;20215;-31
2023/01/26 13:34:06;;;;;;;54.57;21.13;;;6.40;99.90;;;;;;5048898;28;20195;-31
2023/01/26 13:36:42;;;;;;;43.57;21.43;;;6.40;99.90;;;;;;5025465;28;20207;-31
2023/01/26 13:39:33;;;;;;;44.10;21.23;;;6.50;99.90;;;;;;5050783;28;20632;-31
2023/01/26 13:42:24;;;;;;;50.30;21.33;;;6.60;99.90;;;;;;5048327;28;20298;-31
2023/01/26 13:45:03;;;;;;;55.97;21.40;;;6.70;99.90;;;;;;5045058;28;20208;-31
2023/01/26 13:47:44;;;;;;;45.13;19.80;;;6.70;99.90;;;;;;5058222;28;20221;-31
2023/01/26 13:50:31;;;;;;;44.33;20.37;;;6.80;99.90;;;;;;5053079;28;20340;-31
2023/01/26 13:52:59;;;;;;;43.87;19.97;;;6.90;99.90;;;;;;5056305;28;20236;-31
2023/01/26 13:55:30;;;;;;;38.83;19.07;;;6.90;99.90;;;;;;5057189;28;20223;-31
2023/01/26 13:58:16;;;;;;;36.23;17.03;;;7.00;99.90;;;;;;5057477;28;20216;-31